sensor_id;sensor_type;location;lat;lon;timestamp;P1;durP1;ratioP1;P2;durP2;ratioP2
55009;SDS011;40903;51.638;7.528;2022-08-19T00:00:12;6.10;;;5.60;;
55009;SDS011;40903;51.638;7.528;2022-08-19T00:02:39;6.43;;;5.83;;
55009;SDS011;40903;51.638;7.528;2022-08-19T00:05:06;6.17;;;5.53;;
55009;SDS011;40903;51.638;7.528;2022-08-19T00:07:33;6.20;;;5.63;;
55009;SDS011;40903;51.638;7.528;2022-08-19T00:09:58;6.20;;;5.70;;
55009;SDS011;40903;51.638;7.528;2022-08-19T00:12:23;6.03;;;5.43;;
55009;SDS011;40903;51.638;7.528;2022-08-19T00:14:49;5.63;;;5.13;;
55009;SDS011;40903;51.638;7.528;2022-08-19T00:17:14;6.40;;;5.80;;
55009;SDS011;40903;51.638;7.528;2022-08-19T00:19:40;7.53;;;5.97;;
55009;SDS011;40903;51.638;7.528;2022-08-19T00:22:05;6.43;;;5.87;;
55009;SDS011;40903;51.638;7.528;2022-08-19T00:24:33;6.20;;;5.60;;
55009;SDS011;40903;51.638;7.528;2022-08-19T00:26:59;5.73;;;5.33;;
55009;SDS011;40903;51.638;7.528;2022-08-19T00:29:26;6.40;;;5.40;;
55009;SDS011;40903;51.638;7.528;2022-08-19T00:31:53;6.13;;;5.63;;
55009;SDS011;40903;51.638;7.528;2022-08-19T00:34:20;5.93;;;5.50;;
55009;SDS011;40903;51.638;7.528;2022-08-19T00:36:47;6.37;;;5.87;;
55009;SDS011;40903;51.638;7.528;2022-08-19T00:39:14;7.00;;;6.37;;
55009;SDS011;40903;51.638;7.528;2022-08-19T00:41:41;7.27;;;6.33;;
55009;SDS011;40903;51.638;7.528;2022-08-19T00:44:09;6.53;;;5.93;;
55009;SDS011;40903;51.638;7.528;2022-08-19T00:46:37;6.93;;;6.33;;
55009;SDS011;40903;51.638;7.528;2022-08-19T00:49:23;6.50;;;6.00;;
55009;SDS011;40903;51.638;7.528;2022-08-19T00:52:03;6.63;;;6.03;;
55009;SDS011;40903;51.638;7.528;2022-08-19T00:54:33;5.97;;;5.47;;
55009;SDS011;40903;51.638;7.528;2022-08-19T00:56:58;6.73;;;6.13;;
55009;SDS011;40903;51.638;7.528;2022-08-19T00:59:26;6.30;;;5.80;;
55009;SDS011;40903;51.638;7.528;2022-08-19T01:01:53;6.30;;;5.70;;
55009;SDS011;40903;51.638;7.528;2022-08-19T01:04:19;5.90;;;5.40;;
55009;SDS011;40903;51.638;7.528;2022-08-19T01:06:44;6.60;;;5.87;;
55009;SDS011;40903;51.638;7.528;2022-08-19T01:09:09;6.13;;;5.63;;
55009;SDS011;40903;51.638;7.528;2022-08-19T01:11:36;5.80;;;5.30;;
55009;SDS011;40903;51.638;7.528;2022-08-19T01:14:05;7.27;;;5.33;;
55009;SDS011;40903;51.638;7.528;2022-08-19T01:16:32;6.23;;;5.73;;
55009;SDS011;40903;51.638;7.528;2022-08-19T01:18:59;6.23;;;5.73;;
55009;SDS011;40903;51.638;7.528;2022-08-19T01:23:59;6.43;;;5.83;;
55009;SDS011;40903;51.638;7.528;2022-08-19T01:26:25;6.37;;;5.80;;
55009;SDS011;40903;51.638;7.528;2022-08-19T01:28:53;6.60;;;5.90;;
55009;SDS011;40903;51.638;7.528;2022-08-19T01:31:22;6.60;;;6.00;;
55009;SDS011;40903;51.638;7.528;2022-08-19T01:33:50;6.30;;;5.70;;
55009;SDS011;40903;51.638;7.528;2022-08-19T01:39:04;6.00;;;5.50;;
55009;SDS011;40903;51.638;7.528;2022-08-19T01:41:34;6.60;;;5.90;;
55009;SDS011;40903;51.638;7.528;2022-08-19T01:43:59;7.70;;;7.00;;
55009;SDS011;40903;51.638;7.528;2022-08-19T01:46:25;7.70;;;7.10;;
55009;SDS011;40903;51.638;7.528;2022-08-19T01:48:51;8.17;;;6.43;;
55009;SDS011;40903;51.638;7.528;2022-08-19T01:51:16;7.30;;;6.60;;
55009;SDS011;40903;51.638;7.528;2022-08-19T01:53:42;6.90;;;6.30;;
55009;SDS011;40903;51.638;7.528;2022-08-19T01:56:08;7.47;;;6.67;;
55009;SDS011;40903;51.638;7.528;2022-08-19T01:58:36;7.33;;;6.73;;
55009;SDS011;40903;51.638;7.528;2022-08-19T02:01:05;6.80;;;6.17;;
55009;SDS011;40903;51.638;7.528;2022-08-19T02:03:31;7.30;;;6.70;;
55009;SDS011;40903;51.638;7.528;2022-08-19T02:05:57;7.07;;;6.47;;
55009;SDS011;40903;51.638;7.528;2022-08-19T02:08:27;8.30;;;7.43;;
55009;SDS011;40903;51.638;7.528;2022-08-19T02:10:54;7.90;;;7.10;;
55009;SDS011;40903;51.638;7.528;2022-08-19T02:13:20;8.97;;;8.07;;
55009;SDS011;40903;51.638;7.528;2022-08-19T02:15:45;9.60;;;8.33;;
55009;SDS011;40903;51.638;7.528;2022-08-19T02:18:11;8.53;;;7.73;;
55009;SDS011;40903;51.638;7.528;2022-08-19T02:20:37;8.30;;;7.50;;
55009;SDS011;40903;51.638;7.528;2022-08-19T02:23:04;8.40;;;7.60;;
55009;SDS011;40903;51.638;7.528;2022-08-19T02:25:29;9.30;;;8.50;;
55009;SDS011;40903;51.638;7.528;2022-08-19T02:27:55;9.37;;;8.57;;
55009;SDS011;40903;51.638;7.528;2022-08-19T02:30:21;8.30;;;7.57;;
55009;SDS011;40903;51.638;7.528;2022-08-19T02:32:46;8.03;;;7.33;;
55009;SDS011;40903;51.638;7.528;2022-08-19T02:35:13;8.20;;;7.40;;
55009;SDS011;40903;51.638;7.528;2022-08-19T02:37:40;7.77;;;6.63;;
55009;SDS011;40903;51.638;7.528;2022-08-19T02:40:25;7.33;;;6.73;;
55009;SDS011;40903;51.638;7.528;2022-08-19T02:42:52;7.10;;;6.50;;
55009;SDS011;40903;51.638;7.528;2022-08-19T02:45:17;9.30;;;8.30;;
55009;SDS011;40903;51.638;7.528;2022-08-19T02:47:42;8.93;;;8.03;;
55009;SDS011;40903;51.638;7.528;2022-08-19T02:50:08;7.80;;;7.13;;
55009;SDS011;40903;51.638;7.528;2022-08-19T02:52:34;9.97;;;9.07;;
55009;SDS011;40903;51.638;7.528;2022-08-19T02:55:00;11.37;;;10.17;;
55009;SDS011;40903;51.638;7.528;2022-08-19T02:57:26;9.60;;;8.70;;
55009;SDS011;40903;51.638;7.528;2022-08-19T02:59:52;9.60;;;8.60;;
55009;SDS011;40903;51.638;7.528;2022-08-19T03:02:17;10.57;;;9.53;;
55009;SDS011;40903;51.638;7.528;2022-08-19T03:04:43;9.87;;;8.87;;
55009;SDS011;40903;51.638;7.528;2022-08-19T03:07:08;9.63;;;8.53;;
55009;SDS011;40903;51.638;7.528;2022-08-19T03:09:36;9.37;;;8.47;;
55009;SDS011;40903;51.638;7.528;2022-08-19T03:12:02;10.10;;;9.10;;
55009;SDS011;40903;51.638;7.528;2022-08-19T03:14:31;10.30;;;9.20;;
55009;SDS011;40903;51.638;7.528;2022-08-19T03:17:00;10.37;;;9.40;;
55009;SDS011;40903;51.638;7.528;2022-08-19T03:19:26;9.43;;;8.50;;
55009;SDS011;40903;51.638;7.528;2022-08-19T03:21:52;9.33;;;8.50;;
55009;SDS011;40903;51.638;7.528;2022-08-19T03:24:18;10.00;;;9.10;;
55009;SDS011;40903;51.638;7.528;2022-08-19T03:26:46;9.33;;;8.47;;
55009;SDS011;40903;51.638;7.528;2022-08-19T03:29:17;9.40;;;8.50;;
55009;SDS011;40903;51.638;7.528;2022-08-19T03:31:43;10.33;;;9.33;;
55009;SDS011;40903;51.638;7.528;2022-08-19T03:34:10;10.60;;;9.30;;
55009;SDS011;40903;51.638;7.528;2022-08-19T03:36:47;10.23;;;9.13;;
55009;SDS011;40903;51.638;7.528;2022-08-19T03:39:13;9.83;;;8.63;;
55009;SDS011;40903;51.638;7.528;2022-08-19T03:41:40;9.33;;;8.43;;
55009;SDS011;40903;51.638;7.528;2022-08-19T03:44:07;9.10;;;8.20;;
55009;SDS011;40903;51.638;7.528;2022-08-19T03:46:33;9.20;;;8.40;;
55009;SDS011;40903;51.638;7.528;2022-08-19T03:49:00;9.27;;;8.33;;
55009;SDS011;40903;51.638;7.528;2022-08-19T03:51:30;9.00;;;8.20;;
55009;SDS011;40903;51.638;7.528;2022-08-19T03:53:58;9.43;;;8.57;;
55009;SDS011;40903;51.638;7.528;2022-08-19T03:56:25;9.80;;;8.67;;
55009;SDS011;40903;51.638;7.528;2022-08-19T03:58:52;9.10;;;8.23;;
55009;SDS011;40903;51.638;7.528;2022-08-19T04:01:19;10.93;;;8.90;;
55009;SDS011;40903;51.638;7.528;2022-08-19T04:03:47;8.87;;;7.97;;
55009;SDS011;40903;51.638;7.528;2022-08-19T04:06:15;9.30;;;8.40;;
55009;SDS011;40903;51.638;7.528;2022-08-19T04:08:44;10.00;;;8.90;;
55009;SDS011;40903;51.638;7.528;2022-08-19T04:11:11;9.53;;;8.47;;
55009;SDS011;40903;51.638;7.528;2022-08-19T04:13:39;9.67;;;8.77;;
55009;SDS011;40903;51.638;7.528;2022-08-19T04:16:05;10.13;;;9.17;;
55009;SDS011;40903;51.638;7.528;2022-08-19T04:18:32;10.30;;;9.20;;
55009;SDS011;40903;51.638;7.528;2022-08-19T04:20:58;11.13;;;8.50;;
55009;SDS011;40903;51.638;7.528;2022-08-19T04:23:24;9.23;;;8.43;;
55009;SDS011;40903;51.638;7.528;2022-08-19T04:25:49;9.27;;;8.23;;
55009;SDS011;40903;51.638;7.528;2022-08-19T04:28:15;10.57;;;9.37;;
55009;SDS011;40903;51.638;7.528;2022-08-19T04:30:44;9.90;;;9.00;;
55009;SDS011;40903;51.638;7.528;2022-08-19T04:33:12;9.10;;;8.30;;
55009;SDS011;40903;51.638;7.528;2022-08-19T04:35:40;10.67;;;9.67;;
55009;SDS011;40903;51.638;7.528;2022-08-19T04:38:08;10.30;;;9.40;;
55009;SDS011;40903;51.638;7.528;2022-08-19T04:40:34;9.70;;;8.70;;
55009;SDS011;40903;51.638;7.528;2022-08-19T04:43:24;11.07;;;9.97;;
55009;SDS011;40903;51.638;7.528;2022-08-19T04:45:49;10.77;;;9.67;;
55009;SDS011;40903;51.638;7.528;2022-08-19T04:48:16;10.30;;;9.40;;
55009;SDS011;40903;51.638;7.528;2022-08-19T04:50:42;10.40;;;9.37;;
55009;SDS011;40903;51.638;7.528;2022-08-19T04:53:09;9.93;;;8.93;;
55009;SDS011;40903;51.638;7.528;2022-08-19T04:55:38;10.83;;;9.70;;
55009;SDS011;40903;51.638;7.528;2022-08-19T04:58:05;10.77;;;9.67;;
55009;SDS011;40903;51.638;7.528;2022-08-19T05:00:31;11.07;;;10.00;;
55009;SDS011;40903;51.638;7.528;2022-08-19T05:02:56;10.37;;;9.37;;
55009;SDS011;40903;51.638;7.528;2022-08-19T05:05:22;10.47;;;9.37;;
55009;SDS011;40903;51.638;7.528;2022-08-19T05:07:50;9.57;;;8.63;;
55009;SDS011;40903;51.638;7.528;2022-08-19T05:10:15;9.63;;;8.67;;
55009;SDS011;40903;51.638;7.528;2022-08-19T05:12:41;10.07;;;9.17;;
55009;SDS011;40903;51.638;7.528;2022-08-19T05:15:06;11.23;;;10.23;;
55009;SDS011;40903;51.638;7.528;2022-08-19T05:17:33;12.47;;;10.87;;
55009;SDS011;40903;51.638;7.528;2022-08-19T05:19:59;11.93;;;10.83;;
55009;SDS011;40903;51.638;7.528;2022-08-19T05:22:44;12.40;;;11.10;;
55009;SDS011;40903;51.638;7.528;2022-08-19T05:25:12;13.53;;;12.10;;
55009;SDS011;40903;51.638;7.528;2022-08-19T05:27:43;12.27;;;11.03;;
55009;SDS011;40903;51.638;7.528;2022-08-19T05:30:09;12.50;;;11.20;;
55009;SDS011;40903;51.638;7.528;2022-08-19T05:32:36;12.20;;;11.00;;
55009;SDS011;40903;51.638;7.528;2022-08-19T05:35:03;12.47;;;11.27;;
55009;SDS011;40903;51.638;7.528;2022-08-19T05:37:29;12.23;;;11.13;;
55009;SDS011;40903;51.638;7.528;2022-08-19T05:39:54;12.50;;;11.40;;
55009;SDS011;40903;51.638;7.528;2022-08-19T05:42:20;14.37;;;12.97;;
55009;SDS011;40903;51.638;7.528;2022-08-19T05:44:47;14.10;;;12.63;;
55009;SDS011;40903;51.638;7.528;2022-08-19T05:47:14;14.33;;;12.90;;
55009;SDS011;40903;51.638;7.528;2022-08-19T05:49:41;14.57;;;13.17;;
55009;SDS011;40903;51.638;7.528;2022-08-19T05:52:09;13.77;;;12.47;;
55009;SDS011;40903;51.638;7.528;2022-08-19T05:54:37;14.43;;;13.00;;
55009;SDS011;40903;51.638;7.528;2022-08-19T05:57:05;14.10;;;12.80;;
55009;SDS011;40903;51.638;7.528;2022-08-19T05:59:31;14.30;;;12.80;;
55009;SDS011;40903;51.638;7.528;2022-08-19T06:01:58;15.93;;;14.27;;
55009;SDS011;40903;51.638;7.528;2022-08-19T06:04:24;14.60;;;13.13;;
55009;SDS011;40903;51.638;7.528;2022-08-19T06:06:51;14.73;;;13.33;;
55009;SDS011;40903;51.638;7.528;2022-08-19T06:09:17;14.67;;;13.27;;
55009;SDS011;40903;51.638;7.528;2022-08-19T06:11:47;14.97;;;13.40;;
55009;SDS011;40903;51.638;7.528;2022-08-19T06:14:15;16.10;;;14.50;;
55009;SDS011;40903;51.638;7.528;2022-08-19T06:16:44;17.90;;;15.90;;
55009;SDS011;40903;51.638;7.528;2022-08-19T06:19:11;17.10;;;15.30;;
55009;SDS011;40903;51.638;7.528;2022-08-19T06:21:40;15.60;;;14.10;;
55009;SDS011;40903;51.638;7.528;2022-08-19T06:24:07;17.17;;;15.47;;
55009;SDS011;40903;51.638;7.528;2022-08-19T06:26:35;16.87;;;15.17;;
55009;SDS011;40903;51.638;7.528;2022-08-19T06:29:04;16.53;;;14.87;;
55009;SDS011;40903;51.638;7.528;2022-08-19T06:31:31;17.07;;;15.27;;
55009;SDS011;40903;51.638;7.528;2022-08-19T06:33:58;18.43;;;16.53;;
55009;SDS011;40903;51.638;7.528;2022-08-19T06:36:32;18.27;;;16.40;;
55009;SDS011;40903;51.638;7.528;2022-08-19T06:39:07;22.83;;;17.23;;
55009;SDS011;40903;51.638;7.528;2022-08-19T06:41:35;19.03;;;16.57;;
55009;SDS011;40903;51.638;7.528;2022-08-19T06:44:05;18.70;;;16.83;;
55009;SDS011;40903;51.638;7.528;2022-08-19T06:46:32;17.00;;;15.20;;
55009;SDS011;40903;51.638;7.528;2022-08-19T06:48:58;17.90;;;16.00;;
55009;SDS011;40903;51.638;7.528;2022-08-19T06:51:24;21.10;;;18.90;;
55009;SDS011;40903;51.638;7.528;2022-08-19T06:53:50;20.57;;;18.33;;
55009;SDS011;40903;51.638;7.528;2022-08-19T06:56:18;21.50;;;19.40;;
55009;SDS011;40903;51.638;7.528;2022-08-19T06:58:50;24.73;;;22.17;;
55009;SDS011;40903;51.638;7.528;2022-08-19T07:01:17;27.53;;;24.03;;
55009;SDS011;40903;51.638;7.528;2022-08-19T07:03:44;26.43;;;22.73;;
55009;SDS011;40903;51.638;7.528;2022-08-19T07:06:12;25.40;;;22.87;;
55009;SDS011;40903;51.638;7.528;2022-08-19T07:08:42;27.53;;;24.67;;
55009;SDS011;40903;51.638;7.528;2022-08-19T07:11:09;27.30;;;24.30;;
55009;SDS011;40903;51.638;7.528;2022-08-19T07:13:36;30.50;;;24.77;;
55009;SDS011;40903;51.638;7.528;2022-08-19T07:16:05;29.00;;;25.87;;
55009;SDS011;40903;51.638;7.528;2022-08-19T07:18:32;31.83;;;26.40;;
55009;SDS011;40903;51.638;7.528;2022-08-19T07:21:11;32.27;;;26.30;;
55009;SDS011;40903;51.638;7.528;2022-08-19T07:23:47;29.77;;;26.63;;
55009;SDS011;40903;51.638;7.528;2022-08-19T07:26:15;37.77;;;28.77;;
55009;SDS011;40903;51.638;7.528;2022-08-19T07:28:44;30.87;;;25.63;;
55009;SDS011;40903;51.638;7.528;2022-08-19T07:31:11;31.13;;;26.83;;
55009;SDS011;40903;51.638;7.528;2022-08-19T07:33:43;32.03;;;27.20;;
55009;SDS011;40903;51.638;7.528;2022-08-19T07:36:09;29.53;;;26.30;;
55009;SDS011;40903;51.638;7.528;2022-08-19T07:38:38;31.07;;;27.67;;
55009;SDS011;40903;51.638;7.528;2022-08-19T07:41:05;34.10;;;27.50;;
55009;SDS011;40903;51.638;7.528;2022-08-19T07:43:31;33.00;;;28.40;;
55009;SDS011;40903;51.638;7.528;2022-08-19T07:45:57;31.03;;;27.73;;
55009;SDS011;40903;51.638;7.528;2022-08-19T07:48:25;28.73;;;25.77;;
55009;SDS011;40903;51.638;7.528;2022-08-19T07:50:53;27.60;;;24.60;;
55009;SDS011;40903;51.638;7.528;2022-08-19T07:53:21;27.27;;;24.17;;
55009;SDS011;40903;51.638;7.528;2022-08-19T07:55:47;29.67;;;26.30;;
55009;SDS011;40903;51.638;7.528;2022-08-19T07:58:14;28.43;;;25.53;;
55009;SDS011;40903;51.638;7.528;2022-08-19T08:00:42;29.10;;;24.67;;
55009;SDS011;40903;51.638;7.528;2022-08-19T08:03:09;29.80;;;25.20;;
55009;SDS011;40903;51.638;7.528;2022-08-19T08:05:38;27.87;;;24.53;;
55009;SDS011;40903;51.638;7.528;2022-08-19T08:08:22;26.37;;;23.80;;
55009;SDS011;40903;51.638;7.528;2022-08-19T08:11:06;26.43;;;23.73;;
55009;SDS011;40903;51.638;7.528;2022-08-19T08:13:32;30.40;;;24.93;;
55009;SDS011;40903;51.638;7.528;2022-08-19T08:16:02;25.63;;;22.97;;
55009;SDS011;40903;51.638;7.528;2022-08-19T08:18:27;25.00;;;22.30;;
55009;SDS011;40903;51.638;7.528;2022-08-19T08:20:54;25.07;;;22.47;;
55009;SDS011;40903;51.638;7.528;2022-08-19T08:23:20;22.90;;;19.87;;
55009;SDS011;40903;51.638;7.528;2022-08-19T08:25:56;24.93;;;21.60;;
55009;SDS011;40903;51.638;7.528;2022-08-19T08:28:22;24.83;;;21.63;;
55009;SDS011;40903;51.638;7.528;2022-08-19T08:30:49;24.97;;;20.27;;
55009;SDS011;40903;51.638;7.528;2022-08-19T08:33:19;25.40;;;20.87;;
55009;SDS011;40903;51.638;7.528;2022-08-19T08:35:46;25.70;;;20.17;;
55009;SDS011;40903;51.638;7.528;2022-08-19T08:38:12;19.80;;;17.80;;
55009;SDS011;40903;51.638;7.528;2022-08-19T08:40:43;21.43;;;19.33;;
55009;SDS011;40903;51.638;7.528;2022-08-19T08:45:52;22.30;;;20.07;;
55009;SDS011;40903;51.638;7.528;2022-08-19T08:48:30;23.93;;;18.77;;
55009;SDS011;40903;51.638;7.528;2022-08-19T08:50:57;24.03;;;18.50;;
55009;SDS011;40903;51.638;7.528;2022-08-19T08:53:23;17.70;;;15.83;;
55009;SDS011;40903;51.638;7.528;2022-08-19T08:55:50;18.30;;;16.60;;
55009;SDS011;40903;51.638;7.528;2022-08-19T08:58:19;17.60;;;15.80;;
55009;SDS011;40903;51.638;7.528;2022-08-19T09:00:51;15.03;;;13.53;;
55009;SDS011;40903;51.638;7.528;2022-08-19T09:03:23;13.07;;;11.43;;
55009;SDS011;40903;51.638;7.528;2022-08-19T09:09:12;10.37;;;9.37;;
55009;SDS011;40903;51.638;7.528;2022-08-19T09:11:31;11.83;;;9.77;;
55009;SDS011;40903;51.638;7.528;2022-08-19T09:14:37;10.70;;;9.10;;
55009;SDS011;40903;51.638;7.528;2022-08-19T09:17:19;10.43;;;9.50;;
55009;SDS011;40903;51.638;7.528;2022-08-19T09:19:58;10.40;;;9.33;;
55009;SDS011;40903;51.638;7.528;2022-08-19T09:22:40;9.47;;;8.67;;
55009;SDS011;40903;51.638;7.528;2022-08-19T09:25:11;8.57;;;7.80;;
55009;SDS011;40903;51.638;7.528;2022-08-19T09:27:39;9.90;;;9.03;;
55009;SDS011;40903;51.638;7.528;2022-08-19T09:30:06;10.80;;;9.07;;
55009;SDS011;40903;51.638;7.528;2022-08-19T09:32:33;13.10;;;9.13;;
55009;SDS011;40903;51.638;7.528;2022-08-19T09:34:58;8.93;;;8.03;;
55009;SDS011;40903;51.638;7.528;2022-08-19T09:37:25;10.50;;;9.50;;
55009;SDS011;40903;51.638;7.528;2022-08-19T09:39:52;10.37;;;9.40;;
55009;SDS011;40903;51.638;7.528;2022-08-19T09:42:17;12.43;;;11.43;;
55009;SDS011;40903;51.638;7.528;2022-08-19T09:44:44;10.80;;;9.77;;
55009;SDS011;40903;51.638;7.528;2022-08-19T09:47:10;9.93;;;8.93;;
55009;SDS011;40903;51.638;7.528;2022-08-19T09:49:37;8.47;;;7.67;;
55009;SDS011;40903;51.638;7.528;2022-08-19T09:52:04;8.83;;;7.93;;
55009;SDS011;40903;51.638;7.528;2022-08-19T09:54:32;8.30;;;6.00;;
55009;SDS011;40903;51.638;7.528;2022-08-19T09:56:58;7.03;;;6.53;;
55009;SDS011;40903;51.638;7.528;2022-08-19T09:59:27;7.37;;;6.53;;
55009;SDS011;40903;51.638;7.528;2022-08-19T10:01:53;9.20;;;5.77;;
55009;SDS011;40903;51.638;7.528;2022-08-19T10:04:20;11.23;;;6.30;;
55009;SDS011;40903;51.638;7.528;2022-08-19T10:06:46;7.20;;;6.50;;
55009;SDS011;40903;51.638;7.528;2022-08-19T10:09:14;8.57;;;7.77;;
55009;SDS011;40903;51.638;7.528;2022-08-19T10:11:42;8.60;;;6.80;;
55009;SDS011;40903;51.638;7.528;2022-08-19T10:14:13;8.43;;;7.63;;
55009;SDS011;40903;51.638;7.528;2022-08-19T10:16:39;7.17;;;6.57;;
55009;SDS011;40903;51.638;7.528;2022-08-19T10:19:06;7.80;;;7.20;;
55009;SDS011;40903;51.638;7.528;2022-08-19T10:21:34;7.23;;;6.53;;
55009;SDS011;40903;51.638;7.528;2022-08-19T10:24:00;9.73;;;6.83;;
55009;SDS011;40903;51.638;7.528;2022-08-19T10:26:29;7.20;;;6.50;;
55009;SDS011;40903;51.638;7.528;2022-08-19T10:29:01;7.00;;;6.40;;
55009;SDS011;40903;51.638;7.528;2022-08-19T10:31:28;8.67;;;6.70;;
55009;SDS011;40903;51.638;7.528;2022-08-19T10:33:56;9.63;;;6.97;;
55009;SDS011;40903;51.638;7.528;2022-08-19T10:36:25;7.40;;;6.70;;
55009;SDS011;40903;51.638;7.528;2022-08-19T10:38:53;7.00;;;6.30;;
55009;SDS011;40903;51.638;7.528;2022-08-19T10:41:25;7.00;;;6.40;;
55009;SDS011;40903;51.638;7.528;2022-08-19T10:43:53;7.47;;;6.67;;
55009;SDS011;40903;51.638;7.528;2022-08-19T10:46:21;10.40;;;7.00;;
55009;SDS011;40903;51.638;7.528;2022-08-19T10:48:48;11.77;;;6.50;;
55009;SDS011;40903;51.638;7.528;2022-08-19T10:51:14;8.20;;;7.50;;
55009;SDS011;40903;51.638;7.528;2022-08-19T10:53:59;8.10;;;7.40;;
55009;SDS011;40903;51.638;7.528;2022-08-19T10:56:25;8.37;;;7.77;;
55009;SDS011;40903;51.638;7.528;2022-08-19T10:59:11;10.67;;;9.77;;
55009;SDS011;40903;51.638;7.528;2022-08-19T11:01:38;9.93;;;8.93;;
55009;SDS011;40903;51.638;7.528;2022-08-19T11:04:05;9.97;;;8.97;;
55009;SDS011;40903;51.638;7.528;2022-08-19T11:06:34;8.87;;;7.80;;
55009;SDS011;40903;51.638;7.528;2022-08-19T11:09:01;9.17;;;8.37;;
55009;SDS011;40903;51.638;7.528;2022-08-19T11:11:27;9.10;;;7.43;;
55009;SDS011;40903;51.638;7.528;2022-08-19T11:13:53;8.47;;;7.73;;
55009;SDS011;40903;51.638;7.528;2022-08-19T11:16:20;7.07;;;6.43;;
55009;SDS011;40903;51.638;7.528;2022-08-19T11:18:49;8.83;;;8.10;;
55009;SDS011;40903;51.638;7.528;2022-08-19T11:21:18;12.70;;;10.37;;
55009;SDS011;40903;51.638;7.528;2022-08-19T11:23:49;10.30;;;9.27;;
55009;SDS011;40903;51.638;7.528;2022-08-19T11:26:17;10.33;;;9.33;;
55009;SDS011;40903;51.638;7.528;2022-08-19T11:28:44;11.77;;;10.77;;
55009;SDS011;40903;51.638;7.528;2022-08-19T11:31:11;11.07;;;10.03;;
55009;SDS011;40903;51.638;7.528;2022-08-19T11:33:38;11.97;;;10.97;;
55009;SDS011;40903;51.638;7.528;2022-08-19T11:36:04;11.60;;;9.50;;
55009;SDS011;40903;51.638;7.528;2022-08-19T11:38:29;10.80;;;9.90;;
55009;SDS011;40903;51.638;7.528;2022-08-19T11:40:59;10.70;;;9.80;;
55009;SDS011;40903;51.638;7.528;2022-08-19T11:43:26;9.87;;;9.07;;
55009;SDS011;40903;51.638;7.528;2022-08-19T11:45:55;11.30;;;10.30;;
55009;SDS011;40903;51.638;7.528;2022-08-19T11:48:20;9.93;;;9.03;;
55009;SDS011;40903;51.638;7.528;2022-08-19T11:50:47;12.80;;;10.40;;
55009;SDS011;40903;51.638;7.528;2022-08-19T11:53:13;11.73;;;10.33;;
55009;SDS011;40903;51.638;7.528;2022-08-19T11:55:39;9.63;;;8.73;;
55009;SDS011;40903;51.638;7.528;2022-08-19T11:58:05;9.57;;;8.73;;
55009;SDS011;40903;51.638;7.528;2022-08-19T12:00:32;7.70;;;7.10;;
55009;SDS011;40903;51.638;7.528;2022-08-19T12:03:01;9.73;;;8.77;;
55009;SDS011;40903;51.638;7.528;2022-08-19T12:05:26;7.87;;;7.17;;
55009;SDS011;40903;51.638;7.528;2022-08-19T12:07:52;8.27;;;7.33;;
55009;SDS011;40903;51.638;7.528;2022-08-19T12:10:19;7.10;;;6.40;;
55009;SDS011;40903;51.638;7.528;2022-08-19T12:12:45;7.47;;;6.83;;
55009;SDS011;40903;51.638;7.528;2022-08-19T12:15:10;7.43;;;6.83;;
55009;SDS011;40903;51.638;7.528;2022-08-19T12:17:37;5.73;;;5.23;;
55009;SDS011;40903;51.638;7.528;2022-08-19T12:20:03;6.97;;;5.60;;
55009;SDS011;40903;51.638;7.528;2022-08-19T12:22:29;7.10;;;5.53;;
55009;SDS011;40903;51.638;7.528;2022-08-19T12:24:54;5.13;;;4.73;;
55009;SDS011;40903;51.638;7.528;2022-08-19T12:27:20;7.00;;;6.40;;
55009;SDS011;40903;51.638;7.528;2022-08-19T12:29:45;8.80;;;8.00;;
55009;SDS011;40903;51.638;7.528;2022-08-19T12:32:11;9.20;;;8.43;;
55009;SDS011;40903;51.638;7.528;2022-08-19T12:34:36;8.90;;;8.07;;
55009;SDS011;40903;51.638;7.528;2022-08-19T12:37:02;9.23;;;8.33;;
55009;SDS011;40903;51.638;7.528;2022-08-19T12:39:29;8.50;;;7.80;;
55009;SDS011;40903;51.638;7.528;2022-08-19T12:41:58;8.13;;;7.07;;
55009;SDS011;40903;51.638;7.528;2022-08-19T12:44:23;7.90;;;7.13;;
55009;SDS011;40903;51.638;7.528;2022-08-19T12:46:49;7.27;;;6.43;;
55009;SDS011;40903;51.638;7.528;2022-08-19T12:49:14;6.97;;;6.33;;
55009;SDS011;40903;51.638;7.528;2022-08-19T12:51:40;6.47;;;5.97;;
55009;SDS011;40903;51.638;7.528;2022-08-19T12:54:06;10.40;;;6.73;;
55009;SDS011;40903;51.638;7.528;2022-08-19T12:56:31;7.00;;;6.30;;
55009;SDS011;40903;51.638;7.528;2022-08-19T12:59:00;8.67;;;7.97;;
55009;SDS011;40903;51.638;7.528;2022-08-19T13:01:27;9.23;;;8.33;;
55009;SDS011;40903;51.638;7.528;2022-08-19T13:03:55;10.33;;;9.37;;
55009;SDS011;40903;51.638;7.528;2022-08-19T13:06:20;10.00;;;9.10;;
55009;SDS011;40903;51.638;7.528;2022-08-19T13:08:47;8.67;;;7.97;;
55009;SDS011;40903;51.638;7.528;2022-08-19T13:11:14;7.90;;;7.30;;
55009;SDS011;40903;51.638;7.528;2022-08-19T13:13:42;9.47;;;8.63;;
55009;SDS011;40903;51.638;7.528;2022-08-19T13:16:09;9.10;;;8.40;;
55009;SDS011;40903;51.638;7.528;2022-08-19T13:18:36;8.80;;;8.10;;
55009;SDS011;40903;51.638;7.528;2022-08-19T13:21:03;8.63;;;7.83;;
55009;SDS011;40903;51.638;7.528;2022-08-19T13:23:29;8.20;;;7.50;;
55009;SDS011;40903;51.638;7.528;2022-08-19T13:25:56;8.80;;;7.40;;
55009;SDS011;40903;51.638;7.528;2022-08-19T13:28:26;7.90;;;7.30;;
55009;SDS011;40903;51.638;7.528;2022-08-19T13:31:14;7.13;;;6.50;;
55009;SDS011;40903;51.638;7.528;2022-08-19T13:33:59;6.67;;;6.07;;
55009;SDS011;40903;51.638;7.528;2022-08-19T13:36:24;6.50;;;5.90;;
55009;SDS011;40903;51.638;7.528;2022-08-19T13:38:50;8.40;;;7.60;;
55009;SDS011;40903;51.638;7.528;2022-08-19T13:41:16;8.73;;;7.63;;
55009;SDS011;40903;51.638;7.528;2022-08-19T13:43:43;7.90;;;7.20;;
55009;SDS011;40903;51.638;7.528;2022-08-19T13:46:09;8.33;;;6.80;;
55009;SDS011;40903;51.638;7.528;2022-08-19T13:48:39;10.23;;;7.27;;
55009;SDS011;40903;51.638;7.528;2022-08-19T13:51:06;8.50;;;7.70;;
55009;SDS011;40903;51.638;7.528;2022-08-19T13:53:35;8.00;;;7.07;;
55009;SDS011;40903;51.638;7.528;2022-08-19T13:56:05;9.00;;;8.30;;
55009;SDS011;40903;51.638;7.528;2022-08-19T13:58:32;10.33;;;9.23;;
55009;SDS011;40903;51.638;7.528;2022-08-19T14:00:57;9.97;;;7.60;;
55009;SDS011;40903;51.638;7.528;2022-08-19T14:03:24;9.37;;;8.50;;
55009;SDS011;40903;51.638;7.528;2022-08-19T14:05:50;8.57;;;7.77;;
55009;SDS011;40903;51.638;7.528;2022-08-19T14:08:15;8.63;;;7.73;;
55009;SDS011;40903;51.638;7.528;2022-08-19T14:10:41;7.73;;;7.03;;
55009;SDS011;40903;51.638;7.528;2022-08-19T14:13:08;7.13;;;6.60;;
55009;SDS011;40903;51.638;7.528;2022-08-19T14:15:34;8.57;;;7.87;;
55009;SDS011;40903;51.638;7.528;2022-08-19T14:17:59;10.60;;;7.53;;
55009;SDS011;40903;51.638;7.528;2022-08-19T14:20:25;8.73;;;7.23;;
55009;SDS011;40903;51.638;7.528;2022-08-19T14:22:50;7.80;;;7.00;;
55009;SDS011;40903;51.638;7.528;2022-08-19T14:25:20;6.80;;;6.30;;
55009;SDS011;40903;51.638;7.528;2022-08-19T14:27:47;7.50;;;6.80;;
55009;SDS011;40903;51.638;7.528;2022-08-19T14:30:14;8.17;;;7.47;;
55009;SDS011;40903;51.638;7.528;2022-08-19T14:32:42;7.43;;;6.77;;
55009;SDS011;40903;51.638;7.528;2022-08-19T14:35:11;7.40;;;6.70;;
55009;SDS011;40903;51.638;7.528;2022-08-19T14:37:37;7.77;;;6.70;;
55009;SDS011;40903;51.638;7.528;2022-08-19T14:40:03;7.50;;;6.90;;
55009;SDS011;40903;51.638;7.528;2022-08-19T14:42:29;7.20;;;6.60;;
55009;SDS011;40903;51.638;7.528;2022-08-19T14:44:58;8.13;;;6.70;;
55009;SDS011;40903;51.638;7.528;2022-08-19T14:47:24;6.67;;;6.07;;
55009;SDS011;40903;51.638;7.528;2022-08-19T14:49:49;6.30;;;5.43;;
55009;SDS011;40903;51.638;7.528;2022-08-19T14:52:15;6.43;;;5.83;;